createdAt,value
2018-09-17T00:01:55.867Z,15.17
2018-09-17T00:04:24.624Z,15.00
2018-09-17T00:06:53.259Z,15.09
2018-09-17T00:09:21.878Z,15.07
2018-09-17T00:11:50.495Z,15.13
2018-09-17T00:14:19.150Z,14.86
2018-09-17T00:16:47.887Z,14.92
2018-09-17T00:19:16.512Z,14.81
2018-09-17T00:21:45.147Z,14.65
2018-09-17T00:24:13.766Z,14.52
2018-09-17T00:26:42.378Z,14.59
2018-09-17T00:29:11.026Z,14.66
2018-09-17T00:31:40.129Z,14.74
2018-09-17T00:34:08.804Z,14.75
2018-09-17T00:36:37.455Z,14.51
2018-09-17T00:39:08.835Z,14.53
2018-09-17T00:41:37.546Z,14.68
2018-09-17T00:44:06.140Z,14.55
2018-09-17T00:46:34.809Z,14.50
2018-09-17T00:49:03.431Z,14.35
2018-09-17T00:51:32.189Z,14.49
2018-09-17T00:54:00.827Z,14.45
2018-09-17T00:56:29.733Z,14.49
2018-09-17T00:58:58.355Z,14.45
2018-09-17T01:01:26.982Z,14.52
2018-09-17T01:03:55.745Z,14.33
2018-09-17T01:06:24.450Z,14.33
2018-09-17T01:08:53.075Z,14.30
2018-09-17T01:11:21.802Z,14.33
2018-09-17T01:13:50.479Z,14.17
2018-09-17T01:16:19.107Z,14.21
2018-09-17T01:18:48.347Z,14.27
2018-09-17T01:21:17.005Z,14.27
2018-09-17T01:23:45.683Z,14.12
2018-09-17T01:26:14.311Z,14.20
2018-09-17T01:28:42.998Z,14.19
2018-09-17T01:31:11.604Z,14.07
2018-09-17T01:33:40.232Z,14.15
2018-09-17T01:36:08.871Z,14.09
2018-09-17T01:38:37.542Z,14.12
2018-09-17T01:41:06.229Z,13.94
2018-09-17T01:43:34.900Z,13.93
2018-09-17T01:46:03.584Z,14.05
2018-09-17T01:48:32.247Z,13.98
2018-09-17T01:51:00.889Z,13.89
2018-09-17T01:53:29.503Z,13.90
2018-09-17T01:55:58.131Z,14.08
2018-09-17T01:58:26.750Z,13.99
2018-09-17T02:00:55.488Z,13.95
2018-09-17T02:03:24.107Z,13.96
2018-09-17T02:05:52.758Z,14.06
2018-09-17T02:08:21.446Z,14.07
2018-09-17T02:10:50.071Z,14.00
2018-09-17T02:13:18.952Z,13.96
2018-09-17T02:15:47.568Z,13.92
2018-09-17T02:18:16.199Z,13.94
2018-09-17T02:20:44.847Z,13.92
2018-09-17T02:23:13.531Z,13.89
2018-09-17T02:25:43.960Z,13.75
2018-09-17T02:28:12.575Z,13.84
2018-09-17T02:30:41.191Z,13.69
2018-09-17T02:33:09.850Z,13.74
2018-09-17T02:35:38.617Z,13.66
2018-09-17T02:38:07.333Z,13.63
2018-09-17T02:40:35.935Z,13.66
2018-09-17T02:43:04.636Z,13.50
2018-09-17T02:45:33.388Z,13.61
2018-09-17T02:48:02.066Z,13.65
2018-09-17T02:50:30.724Z,13.61
2018-09-17T02:52:59.356Z,13.77
2018-09-17T02:55:27.981Z,13.91
2018-09-17T02:57:56.587Z,13.88
2018-09-17T03:00:25.241Z,13.94
2018-09-17T03:02:54.092Z,13.74
2018-09-17T03:05:23.600Z,13.67
2018-09-17T03:07:52.217Z,13.56
2018-09-17T03:10:20.843Z,13.58
2018-09-17T03:12:49.491Z,13.50
2018-09-17T03:15:29.475Z,13.64
2018-09-17T03:17:58.125Z,13.58
2018-09-17T03:20:26.755Z,13.63
2018-09-17T03:22:55.394Z,13.67
2018-09-17T03:25:24.024Z,13.64
2018-09-17T03:27:52.651Z,13.46
2018-09-17T03:30:21.326Z,13.62
2018-09-17T03:32:49.954Z,13.68
2018-09-17T03:35:18.620Z,13.63
2018-09-17T03:37:47.282Z,13.55
2018-09-17T03:40:15.967Z,13.56
2018-09-17T03:42:44.605Z,13.63
2018-09-17T03:45:13.437Z,13.73
2018-09-17T03:47:42.139Z,13.68
2018-09-17T03:50:10.808Z,13.64
2018-09-17T03:52:39.426Z,13.62
2018-09-17T03:55:08.063Z,13.60
2018-09-17T03:57:36.744Z,13.59
2018-09-17T04:00:05.424Z,13.53
2018-09-17T04:02:34.060Z,13.59
2018-09-17T04:05:02.692Z,13.51
2018-09-17T04:07:31.366Z,13.51
2018-09-17T04:09:59.979Z,13.68
2018-09-17T04:12:28.634Z,13.71
2018-09-17T04:14:57.285Z,13.46
2018-09-17T04:17:25.923Z,13.51
2018-09-17T04:19:54.601Z,13.46
2018-09-17T04:22:23.210Z,13.61
2018-09-17T04:24:51.859Z,13.52
2018-09-17T04:27:20.497Z,13.52
2018-09-17T04:29:49.137Z,13.46
2018-09-17T04:32:17.791Z,13.43
2018-09-17T04:34:46.504Z,13.35
2018-09-17T04:37:15.803Z,13.33
2018-09-17T04:39:44.483Z,13.26
2018-09-17T04:42:13.107Z,13.11
2018-09-17T04:44:41.968Z,13.06
2018-09-17T04:47:10.563Z,13.06
2018-09-17T04:49:39.294Z,12.97
2018-09-17T04:52:08.067Z,13.01
2018-09-17T04:54:36.790Z,12.96
2018-09-17T04:57:05.462Z,13.22
2018-09-17T04:59:34.127Z,13.29
2018-09-17T05:02:03.095Z,13.30
2018-09-17T05:04:31.737Z,13.25
2018-09-17T05:07:00.391Z,13.16
2018-09-17T05:09:29.112Z,13.32
2018-09-17T05:11:57.822Z,13.24
2018-09-17T05:14:26.540Z,13.41
2018-09-17T05:16:55.369Z,13.36
2018-09-17T05:19:25.505Z,13.40
2018-09-17T05:21:54.338Z,13.34
2018-09-17T05:24:22.947Z,13.48
2018-09-17T05:26:51.666Z,13.47
2018-09-17T05:29:20.360Z,13.55
2018-09-17T05:31:49.006Z,13.76
2018-09-17T05:34:17.692Z,13.76
2018-09-17T05:36:46.431Z,13.84
2018-09-17T05:39:15.055Z,13.94
2018-09-17T05:41:43.728Z,13.97
2018-09-17T05:44:12.420Z,14.13
2018-09-17T05:46:41.126Z,14.07
2018-09-17T05:49:09.839Z,14.27
2018-09-17T05:51:38.505Z,14.51
2018-09-17T05:54:07.149Z,14.62
2018-09-17T05:56:35.804Z,14.64
2018-09-17T05:59:04.426Z,14.63
2018-09-17T06:01:33.044Z,14.74
2018-09-17T06:04:01.683Z,14.78
2018-09-17T06:06:30.335Z,14.81
2018-09-17T06:08:58.977Z,14.81
2018-09-17T06:11:27.647Z,14.74
2018-09-17T06:13:56.316Z,14.81
2018-09-17T06:16:25.029Z,14.77
2018-09-17T06:18:53.795Z,14.87
2018-09-17T06:21:22.444Z,14.92
2018-09-17T06:23:51.111Z,14.97
2018-09-17T06:26:19.727Z,14.91
2018-09-17T06:28:49.012Z,14.88
2018-09-17T06:31:17.604Z,14.96
2018-09-17T06:33:46.291Z,14.82
2018-09-17T06:36:15.018Z,14.81
2018-09-17T06:38:43.725Z,14.88
2018-09-17T06:41:12.586Z,15.03
2018-09-17T06:43:41.472Z,15.15
2018-09-17T06:46:10.649Z,15.16
2018-09-17T06:48:39.324Z,15.19
2018-09-17T06:51:07.967Z,15.18
2018-09-17T06:53:36.741Z,15.21
2018-09-17T06:56:05.455Z,15.37
2018-09-17T06:58:34.111Z,15.45
2018-09-17T07:01:02.751Z,15.47
2018-09-17T07:03:31.426Z,15.72
2018-09-17T07:06:00.094Z,15.81
2018-09-17T07:08:28.880Z,15.95
2018-09-17T07:10:57.565Z,16.07
2018-09-17T07:13:26.203Z,16.14
2018-09-17T07:15:54.866Z,16.25
2018-09-17T07:18:23.519Z,16.44
2018-09-17T07:20:52.200Z,16.73
2018-09-17T07:23:20.833Z,16.89
2018-09-17T07:25:49.494Z,17.15
2018-09-17T07:28:18.148Z,17.39
2018-09-17T07:30:46.789Z,17.75
2018-09-17T07:33:15.809Z,17.91
2018-09-17T07:35:44.455Z,18.21
2018-09-17T07:38:13.108Z,18.40
2018-09-17T07:40:41.743Z,18.64
2018-09-17T07:43:10.363Z,18.69
2018-09-17T07:45:39.040Z,18.47
2018-09-17T07:48:07.731Z,19.02
2018-09-17T07:50:36.421Z,19.17
2018-09-17T07:53:05.251Z,19.20
2018-09-17T07:55:33.824Z,19.15
2018-09-17T07:58:02.531Z,19.45
2018-09-17T08:00:31.191Z,19.51
2018-09-17T08:02:59.892Z,19.76
2018-09-17T08:05:28.570Z,19.89
2018-09-17T08:07:57.203Z,20.22
2018-09-17T08:10:26.397Z,20.66
2018-09-17T08:12:55.103Z,20.88
2018-09-17T08:15:23.768Z,21.47
2018-09-17T08:17:53.332Z,22.08
2018-09-17T08:20:21.961Z,22.36
2018-09-17T08:22:50.934Z,22.52
2018-09-17T08:27:54.425Z,22.36
2018-09-17T08:30:23.108Z,22.94
2018-09-17T08:32:51.819Z,22.93
2018-09-17T08:35:20.533Z,23.20
2018-09-17T08:37:49.779Z,23.50
2018-09-17T08:40:18.507Z,23.43
2018-09-17T08:42:47.168Z,22.95
2018-09-17T08:45:15.841Z,23.25
2018-09-17T08:47:44.535Z,23.57
2018-09-17T08:50:13.300Z,23.65
2018-09-17T08:52:42.044Z,23.97
2018-09-17T08:55:14.967Z,23.32
2018-09-17T08:57:49.180Z,24.04
2018-09-17T09:00:18.790Z,23.90
2018-09-17T09:04:58.042Z,24.17
2018-09-17T09:07:35.785Z,24.62
2018-09-17T09:10:10.705Z,24.20
2018-09-17T09:12:39.903Z,24.31
2018-09-17T09:15:14.049Z,24.86
2018-09-17T09:17:42.782Z,25.60
2018-09-17T09:20:11.404Z,25.30
2018-09-17T09:22:41.015Z,25.88
2018-09-17T09:25:09.764Z,25.90
2018-09-17T09:27:38.430Z,25.99
2018-09-17T09:30:07.100Z,26.52
2018-09-17T09:32:35.724Z,26.27
2018-09-17T09:35:04.465Z,27.14
2018-09-17T09:37:33.280Z,27.16
2018-09-17T09:40:01.945Z,27.11
2018-09-17T09:42:30.620Z,27.05
2018-09-17T09:44:59.256Z,27.21
2018-09-17T09:47:28.015Z,27.49
2018-09-17T09:49:56.987Z,27.41
2018-09-17T09:52:25.859Z,26.93
2018-09-17T09:54:54.533Z,27.50
2018-09-17T09:57:23.179Z,27.73
2018-09-17T09:59:51.823Z,27.73
2018-09-17T10:02:25.877Z,27.63
2018-09-17T10:04:54.739Z,27.72
2018-09-17T10:07:23.382Z,26.18
2018-09-17T10:09:57.555Z,26.83
2018-09-17T10:12:31.636Z,27.68
2018-09-17T10:17:12.478Z,26.66
2018-09-17T10:19:46.470Z,26.86
2018-09-17T10:22:15.262Z,27.39
2018-09-17T10:24:43.967Z,27.72
2018-09-17T10:27:12.930Z,28.37
2018-09-17T10:29:41.579Z,28.24
2018-09-17T10:32:10.248Z,28.53
2018-09-17T10:34:38.921Z,27.99
2018-09-17T10:37:07.628Z,27.79
2018-09-17T10:39:36.296Z,27.16
2018-09-17T10:42:04.926Z,27.51
2018-09-17T10:44:33.571Z,28.18
2018-09-17T10:47:02.304Z,27.68
2018-09-17T10:49:30.866Z,27.88
2018-09-17T10:51:59.719Z,27.43
2018-09-17T10:54:28.511Z,27.61
2018-09-17T10:56:57.362Z,27.63
2018-09-17T10:59:26.110Z,26.98
2018-09-17T11:01:54.720Z,27.15
2018-09-17T11:04:23.352Z,27.47
2018-09-17T11:06:52.029Z,26.94
2018-09-17T11:09:20.768Z,27.01
2018-09-17T11:11:49.411Z,26.80
2018-09-17T11:14:18.082Z,26.58
2018-09-17T11:16:46.747Z,27.23
2018-09-17T11:19:15.389Z,26.43
2018-09-17T11:21:44.044Z,27.05
2018-09-17T11:24:12.655Z,26.89
2018-09-17T11:26:41.298Z,26.54
2018-09-17T11:29:09.912Z,26.48
2018-09-17T11:31:38.531Z,27.04
2018-09-17T11:34:07.148Z,27.39
2018-09-17T11:36:35.826Z,27.08
2018-09-17T11:39:06.454Z,26.04
2018-09-17T11:41:35.204Z,25.97
2018-09-17T11:44:03.853Z,26.43
2018-09-17T11:46:32.458Z,26.45
2018-09-17T11:49:01.199Z,26.99
2018-09-17T11:51:29.871Z,27.10
2018-09-17T11:53:58.656Z,27.13
2018-09-17T11:56:27.285Z,27.70
2018-09-17T11:58:55.985Z,27.08
2018-09-17T12:01:30.007Z,27.24
2018-09-17T12:04:04.078Z,27.50
2018-09-17T12:07:36.548Z,27.66
2018-09-17T12:10:05.212Z,26.53
2018-09-17T12:12:34.052Z,26.87
2018-09-17T12:15:02.771Z,27.67
2018-09-17T12:17:31.539Z,27.99
2018-09-17T12:20:00.276Z,27.88
2018-09-17T12:22:29.159Z,28.21
2018-09-17T12:24:58.028Z,27.85
2018-09-17T12:27:26.701Z,27.47
2018-09-17T12:29:55.372Z,28.00
2018-09-17T12:32:24.192Z,28.18
2018-09-17T12:34:52.911Z,28.60
2018-09-17T12:37:21.996Z,28.77
2018-09-17T12:39:51.313Z,28.32
2018-09-17T12:42:20.037Z,28.42
2018-09-17T12:44:49.647Z,27.83
2018-09-17T12:47:18.370Z,27.95
2018-09-17T12:49:46.979Z,28.09
2018-09-17T12:52:15.643Z,27.02
2018-09-17T12:54:44.412Z,27.63
2018-09-17T12:57:13.111Z,28.01
2018-09-17T12:59:42.375Z,27.89
2018-09-17T13:02:11.502Z,27.58
2018-09-17T13:04:40.615Z,27.83
2018-09-17T13:07:09.235Z,28.02
2018-09-17T13:09:37.990Z,27.69
2018-09-17T13:12:06.709Z,28.26
2018-09-17T13:14:35.503Z,28.23
2018-09-17T13:17:04.293Z,28.47
2018-09-17T13:19:33.064Z,28.63
2018-09-17T13:22:01.717Z,29.29
2018-09-17T13:24:30.537Z,29.11
2018-09-17T13:27:00.322Z,28.80
2018-09-17T13:29:29.085Z,28.25
2018-09-17T13:31:57.827Z,27.85
2018-09-17T13:34:26.475Z,28.63
2018-09-17T13:36:55.314Z,28.45
2018-09-17T13:39:23.983Z,28.62
2018-09-17T13:41:52.770Z,28.79
2018-09-17T13:44:21.546Z,28.42
2018-09-17T13:46:50.117Z,28.88
2018-09-17T13:49:18.827Z,28.80
2018-09-17T13:51:47.457Z,28.56
2018-09-17T13:54:16.138Z,28.28
2018-09-17T13:56:44.746Z,28.11
2018-09-17T13:59:13.464Z,27.88
2018-09-17T14:01:42.614Z,27.45
2018-09-17T14:04:11.366Z,27.89
2018-09-17T14:06:39.919Z,27.58
2018-09-17T14:09:10.051Z,27.82
2018-09-17T14:11:39.133Z,27.17
2018-09-17T14:14:08.288Z,27.15
2018-09-17T14:16:37.002Z,27.30
2018-09-17T14:19:05.642Z,27.29
2018-09-17T14:21:34.266Z,26.91
2018-09-17T14:24:02.906Z,27.13
2018-09-17T14:26:31.659Z,27.12
2018-09-17T14:29:00.350Z,27.24
2018-09-17T14:31:34.572Z,27.27
2018-09-17T14:34:03.205Z,27.08
2018-09-17T14:36:32.664Z,27.38
2018-09-17T14:39:01.343Z,27.25
2018-09-17T14:41:30.015Z,26.97
2018-09-17T14:44:08.046Z,26.97
2018-09-17T14:46:39.141Z,26.93
2018-09-17T14:49:08.359Z,26.75
2018-09-17T14:51:37.198Z,26.62
2018-09-17T14:54:05.939Z,26.35
2018-09-17T14:56:34.871Z,26.13
2018-09-17T14:59:03.627Z,26.05
2018-09-17T15:01:32.263Z,25.99
2018-09-17T15:04:01.120Z,25.98
2018-09-17T15:06:29.901Z,26.12
2018-09-17T15:08:58.552Z,25.90
2018-09-17T15:11:27.298Z,25.69
2018-09-17T15:13:56.673Z,25.67
2018-09-17T15:16:26.581Z,25.66
2018-09-17T15:18:56.127Z,25.65
2018-09-17T15:21:24.820Z,25.37
2018-09-17T15:23:54.618Z,25.38
2018-09-17T15:26:23.515Z,25.36
2018-09-17T15:28:53.269Z,25.24
2018-09-17T15:31:23.713Z,25.31
2018-09-17T15:33:52.327Z,25.18
2018-09-17T15:36:21.069Z,25.10
2018-09-17T15:38:49.723Z,24.99
2018-09-17T15:41:18.407Z,25.04
2018-09-17T15:43:47.020Z,24.94
2018-09-17T15:46:15.829Z,25.09
2018-09-17T15:48:44.413Z,24.95
2018-09-17T15:51:13.054Z,24.88
2018-09-17T15:53:41.663Z,24.94
2018-09-17T15:56:10.391Z,25.01
2018-09-17T15:58:38.987Z,24.97
2018-09-17T16:01:08.186Z,24.89
2018-09-17T16:03:36.851Z,24.71
2018-09-17T16:06:05.471Z,24.82
2018-09-17T16:08:34.188Z,24.85
2018-09-17T16:11:03.817Z,24.79
2018-09-17T16:13:32.519Z,24.70
2018-09-17T16:16:01.421Z,24.69
2018-09-17T16:18:30.120Z,24.66
2018-09-17T16:20:58.790Z,24.60
2018-09-17T16:23:27.483Z,24.61
2018-09-17T16:25:56.117Z,24.54
2018-09-17T16:28:25.291Z,24.55
2018-09-17T16:30:53.960Z,24.47
2018-09-17T16:33:22.604Z,24.45
2018-09-17T16:35:51.348Z,24.38
2018-09-17T16:38:20.369Z,24.25
2018-09-17T16:40:49.311Z,24.20
2018-09-17T16:43:18.011Z,24.16
2018-09-17T16:45:46.748Z,24.15
2018-09-17T16:48:16.015Z,23.99
2018-09-17T16:50:45.427Z,23.88
2018-09-17T16:53:15.687Z,23.77
2018-09-17T16:55:44.335Z,23.46
2018-09-17T16:58:13.370Z,23.17
2018-09-17T17:00:42.535Z,23.17
2018-09-17T17:03:11.267Z,23.15
2018-09-17T17:05:40.099Z,23.20
2018-09-17T17:08:08.756Z,23.11
2018-09-17T17:10:37.426Z,22.99
2018-09-17T17:13:06.052Z,22.98
2018-09-17T17:15:34.793Z,22.95
2018-09-17T17:18:03.505Z,22.83
2018-09-17T17:20:32.155Z,22.72
2018-09-17T17:23:00.852Z,22.67
2018-09-17T17:25:29.508Z,22.53
2018-09-17T17:27:58.771Z,22.42
2018-09-17T17:30:27.469Z,22.26
2018-09-17T17:32:56.724Z,22.16
2018-09-17T17:35:25.311Z,22.17
2018-09-17T17:37:54.003Z,22.05
2018-09-17T17:40:22.792Z,21.92
2018-09-17T17:42:51.380Z,21.88
2018-09-17T17:45:20.159Z,21.83
2018-09-17T17:47:48.875Z,21.75
2018-09-17T17:50:17.558Z,21.64
2018-09-17T17:52:47.747Z,21.63
2018-09-17T17:55:16.381Z,21.57
2018-09-17T17:57:45.021Z,21.47
2018-09-17T18:00:13.719Z,21.40
2018-09-17T18:02:42.410Z,21.43
2018-09-17T18:05:11.359Z,21.43
2018-09-17T18:07:40.400Z,21.28
2018-09-17T18:10:10.045Z,21.16
2018-09-17T18:12:39.147Z,21.18
2018-09-17T18:15:08.327Z,21.09
2018-09-17T18:17:37.831Z,21.13
2018-09-17T18:20:07.425Z,20.96
2018-09-17T18:22:36.292Z,20.88
2018-09-17T18:25:04.938Z,20.79
2018-09-17T18:27:33.581Z,20.77
2018-09-17T18:30:02.358Z,20.77
2018-09-17T18:32:31.164Z,20.76
2018-09-17T18:34:59.783Z,20.60
2018-09-17T18:37:28.624Z,20.58
2018-09-17T18:39:58.595Z,20.36
2018-09-17T18:42:27.303Z,20.35
2018-09-17T18:44:56.055Z,20.36
2018-09-17T18:47:25.091Z,20.36
2018-09-17T18:49:53.803Z,20.30
2018-09-17T18:52:22.699Z,20.25
2018-09-17T18:54:51.656Z,20.18
2018-09-17T18:57:20.605Z,20.15
2018-09-17T18:59:49.218Z,20.01
2018-09-17T19:02:18.682Z,19.84
2018-09-17T19:04:47.323Z,19.77
2018-09-17T19:07:15.979Z,19.68
2018-09-17T19:09:49.227Z,19.72
2018-09-17T19:12:19.215Z,19.82
2018-09-17T19:14:53.174Z,19.71
2018-09-17T19:17:27.346Z,19.45
2018-09-17T19:19:56.262Z,19.48
2018-09-17T19:22:30.212Z,19.58
2018-09-17T19:24:58.839Z,19.52
2018-09-17T19:27:32.843Z,19.73
2018-09-17T19:30:01.824Z,19.76
2018-09-17T19:32:33.612Z,19.72
2018-09-17T19:35:02.487Z,19.75
2018-09-17T19:37:37.895Z,19.72
2018-09-17T19:40:10.690Z,19.62
2018-09-17T19:42:39.412Z,19.53
2018-09-17T19:45:13.791Z,19.65
2018-09-17T19:47:42.589Z,19.55
2018-09-17T19:50:17.998Z,19.47
2018-09-17T19:52:46.960Z,19.43
2018-09-17T19:55:15.720Z,19.20
2018-09-17T19:57:49.730Z,19.04
2018-09-17T20:00:18.623Z,19.14
2018-09-17T20:02:48.849Z,19.06
2018-09-17T20:05:24.221Z,18.68
2018-09-17T20:07:54.558Z,18.72
2018-09-17T20:10:24.820Z,18.73
2018-09-17T20:12:55.397Z,18.72
2018-09-17T20:15:25.642Z,18.44
2018-09-17T20:17:55.817Z,18.07
2018-09-17T20:20:25.149Z,18.13
2018-09-17T20:22:53.760Z,18.15
2018-09-17T20:25:22.667Z,18.11
2018-09-17T20:27:51.299Z,17.88
2018-09-17T20:30:21.189Z,17.74
2018-09-17T20:32:50.160Z,17.88
2018-09-17T20:35:18.812Z,17.92
2018-09-17T20:37:48.193Z,17.75
2018-09-17T20:40:16.837Z,17.72
2018-09-17T20:42:45.640Z,17.81
2018-09-17T20:45:14.282Z,17.76
2018-09-17T20:47:43.727Z,17.81
2018-09-17T20:50:12.451Z,17.68
2018-09-17T20:52:42.211Z,17.60
2018-09-17T20:55:10.904Z,17.52
2018-09-17T20:57:39.517Z,17.52
2018-09-17T21:00:08.198Z,17.48
2018-09-17T21:02:37.656Z,17.59
2018-09-17T21:05:06.835Z,17.56
2018-09-17T21:07:35.507Z,17.61
2018-09-17T21:10:05.547Z,17.50
2018-09-17T21:12:36.050Z,17.54
2018-09-17T21:15:04.895Z,17.64
2018-09-17T21:17:33.527Z,17.50
2018-09-17T21:20:02.252Z,17.29
2018-09-17T21:22:30.924Z,17.16
2018-09-17T21:24:59.661Z,17.32
2018-09-17T21:27:28.413Z,17.33
2018-09-17T21:29:57.131Z,17.40
2018-09-17T21:35:00.713Z,17.04
2018-09-17T21:37:30.175Z,17.08
2018-09-17T21:39:58.795Z,17.00
2018-09-17T21:42:27.485Z,16.81
2018-09-17T21:44:56.161Z,16.87
2018-09-17T21:47:25.192Z,16.94
2018-09-17T21:49:53.879Z,16.98
2018-09-17T21:52:22.609Z,16.76
2018-09-17T21:54:51.201Z,16.73
2018-09-17T21:57:19.902Z,16.78
2018-09-17T21:59:48.890Z,16.84
2018-09-17T22:02:17.553Z,16.85
2018-09-17T22:04:46.247Z,16.87
2018-09-17T22:07:14.885Z,16.78
2018-09-17T22:09:43.511Z,16.77
2018-09-17T22:12:12.231Z,16.87
2018-09-17T22:14:41.716Z,16.73
2018-09-17T22:17:10.440Z,16.67
2018-09-17T22:19:39.174Z,16.58
2018-09-17T22:22:07.853Z,16.45
2018-09-17T22:24:36.491Z,16.48
2018-09-17T22:27:05.107Z,16.44
2018-09-17T22:29:33.749Z,16.42
2018-09-17T22:32:02.452Z,16.48
2018-09-17T22:34:31.118Z,16.50
2018-09-17T22:36:59.769Z,16.44
2018-09-17T22:39:28.440Z,16.32
2018-09-17T22:41:57.109Z,16.40
2018-09-17T22:44:26.276Z,16.21
2018-09-17T22:46:55.232Z,16.14
2018-09-17T22:49:23.887Z,16.07
2018-09-17T22:51:52.672Z,16.12
2018-09-17T22:54:21.591Z,16.08
2018-09-17T22:56:50.227Z,16.02
2018-09-17T22:59:18.880Z,16.00
2018-09-17T23:01:47.588Z,15.89
2018-09-17T23:04:16.219Z,15.93
2018-09-17T23:06:44.824Z,15.84
2018-09-17T23:09:13.466Z,15.84
2018-09-17T23:11:42.094Z,15.80
2018-09-17T23:14:10.747Z,15.78
2018-09-17T23:16:39.405Z,15.69
2018-09-17T23:19:08.084Z,15.83
2018-09-17T23:21:36.749Z,15.90
2018-09-17T23:24:05.350Z,15.92
2018-09-17T23:26:34.340Z,15.93
2018-09-17T23:29:02.988Z,16.01
2018-09-17T23:31:31.615Z,15.98
2018-09-17T23:34:00.238Z,15.88
2018-09-17T23:36:28.896Z,15.91
2018-09-17T23:38:57.540Z,15.82
2018-09-17T23:41:26.202Z,15.80
2018-09-17T23:43:55.121Z,15.77
2018-09-17T23:46:23.778Z,15.74
2018-09-17T23:48:52.358Z,15.69
2018-09-17T23:51:21.003Z,15.76
2018-09-17T23:53:49.644Z,15.62
2018-09-17T23:56:18.295Z,15.71
2018-09-17T23:58:46.941Z,15.60
